Terminal Aerodrome Forecast
Issued by NWS Charleston, WV

Current Version | Previous Version | Graphics & Text | Print | Product List | Glossary On
Versions: 1 2 3 4 5 6 7 8 9 10 11 12 13 14 15 16 17 18 19 20 21 22 23 24 25
000
FTUS41 KRLX 250500 RRA
TAFBKW
TAF
KBKW 250546Z 2506/2606 29009G15KT P6SM OVC015
     FM251000 VRB03KT P6SM FEW020
     FM251700 21007KT P6SM BKN250
     FM260400 16004KT 2SM -RA OVC004=

USA.gov is the U.S. government's official web portal to all federal, state and local government web resources and services.